Charles Darwin — GDLS — position and weather

sailwx.info

Track history (hours):
 
Tides and Currents Weather Stations Pressure Air Temp Water Temp Dewpoint Dewpoint Depression Visibility Wind Speed Wind Dir Waves Ship Positions

Oceanographic research ship Charles Darwin (UK)

Detailed information on ship capabilities available from University of Delaware's Ocean Information Center.

Last reported at 2017-Jun-21 11:31 UTC. Time now 2017-Jun-26 17:10 UTC.
Position N 41°32' W 070°51'.

Length 70 m; draft 5.7 m.

Type: Cargo ship. MMSI: 235011460.

Date/timePositionNaut miles runAvg speedWind from/ knotsBaromVisibWave heightAir tempDewpointWater temp
2017-Jun-21 11:31N 41°32' W 070°51'4 8.9
2017-Jun-21 11:02N 41°36' W 070°53'0 9.1
2017-Jun-21 11:00N 41°36' W 070°54'1 3.1
2017-Jun-21 10:30N 41°37' W 070°55'0 0.0
2017-Jun-21 08:46N 41°37' W 070°55'  
2017-Jun-16 03:34N 41°20' W 071°09'1 3.7
2017-Jun-16 03:19N 41°19' W 071°10'2 2.1
2017-Jun-16 02:09N 41°21' W 071°08'1 2.6
2017-Jun-16 01:41N 41°20' W 071°09'15 1.1
2017-Jun-15 12:12N 41°10' W 070°54'8 0.9
2017-Jun-15 03:58N 41°16' W 071°01'2 2.6
2017-Jun-15 03:06N 41°16' W 071°04'  
Track history (hours):
 
Tides and Currents Weather Stations Pressure Air Temp Water Temp Dewpoint Dewpoint Depression Visibility Wind Speed Wind Dir Waves Ship Positions

Oceanographic research ship Charles Darwin (UK)

Detailed information on ship capabilities available from University of Delaware's Ocean Information Center.

Last reported at 2017-Jun-21 11:31 UTC. Time now 2017-Jun-26 17:10 UTC.
Position N 41°32' W 070°51'.

Length 70 m; draft 5.7 m.

Type: Cargo ship. MMSI: 235011460.

Date/timePositionNaut miles runAvg speedWind from/ knotsBaromVisibWave heightAir tempDewpointWater temp
2017-Jun-21 11:31N 41°32' W 070°51'4 8.9
2017-Jun-21 11:02N 41°36' W 070°53'0 9.1
2017-Jun-21 11:00N 41°36' W 070°54'1 3.1
2017-Jun-21 10:30N 41°37' W 070°55'0 0.0
2017-Jun-21 08:46N 41°37' W 070°55'  
2017-Jun-16 03:34N 41°20' W 071°09'1 3.7
2017-Jun-16 03:19N 41°19' W 071°10'2 2.1
2017-Jun-16 02:09N 41°21' W 071°08'1 2.6
2017-Jun-16 01:41N 41°20' W 071°09'15 1.1
2017-Jun-15 12:12N 41°10' W 070°54'8 0.9
2017-Jun-15 03:58N 41°16' W 071°01'2 2.6
2017-Jun-15 03:06N 41°16' W 071°04'  

Dump ship's entire track history